sensor_id;sensor_type;location;lat;lon;timestamp;temperature;humidity
25877;DHT22;13692;47.480;19.216;2023-01-05T00:01:09;7.30;99.90
25877;DHT22;13692;47.480;19.216;2023-01-05T00:03:36;7.30;99.90
25877;DHT22;13692;47.480;19.216;2023-01-05T00:06:06;7.20;99.90
25877;DHT22;13692;47.480;19.216;2023-01-05T00:08:35;7.20;99.90
25877;DHT22;13692;47.480;19.216;2023-01-05T00:11:05;7.20;99.90
25877;DHT22;13692;47.480;19.216;2023-01-05T00:13:50;7.10;99.90
25877;DHT22;13692;47.480;19.216;2023-01-05T00:16:36;7.10;99.90
25877;DHT22;13692;47.480;19.216;2023-01-05T00:19:22;7.10;99.90
25877;DHT22;13692;47.480;19.216;2023-01-05T00:22:27;7.10;99.90
25877;DHT22;13692;47.480;19.216;2023-01-05T00:27:24;7.00;99.90
25877;DHT22;13692;47.480;19.216;2023-01-05T00:29:51;7.00;99.90
25877;DHT22;13692;47.480;19.216;2023-01-05T00:32:18;7.10;99.90
25877;DHT22;13692;47.480;19.216;2023-01-05T00:34:45;7.10;99.90
25877;DHT22;13692;47.480;19.216;2023-01-05T00:37:12;7.10;99.90
25877;DHT22;13692;47.480;19.216;2023-01-05T00:39:39;7.10;99.90
25877;DHT22;13692;47.480;19.216;2023-01-05T00:42:06;7.10;99.90
25877;DHT22;13692;47.480;19.216;2023-01-05T00:44:33;7.10;99.90
25877;DHT22;13692;47.480;19.216;2023-01-05T00:47:00;7.10;99.90
25877;DHT22;13692;47.480;19.216;2023-01-05T00:49:27;7.10;99.90
25877;DHT22;13692;47.480;19.216;2023-01-05T00:51:54;7.10;99.90
25877;DHT22;13692;47.480;19.216;2023-01-05T00:54:21;7.10;99.90
25877;DHT22;13692;47.480;19.216;2023-01-05T00:56:48;7.10;99.90
25877;DHT22;13692;47.480;19.216;2023-01-05T00:59:16;7.10;99.90
25877;DHT22;13692;47.480;19.216;2023-01-05T01:01:50;7.10;99.90
25877;DHT22;13692;47.480;19.216;2023-01-05T01:04:18;7.20;99.90
25877;DHT22;13692;47.480;19.216;2023-01-05T01:06:45;7.10;99.90
25877;DHT22;13692;47.480;19.216;2023-01-05T01:09:12;7.20;99.90
25877;DHT22;13692;47.480;19.216;2023-01-05T01:11:39;7.20;99.90
25877;DHT22;13692;47.480;19.216;2023-01-05T01:14:09;7.20;99.90
25877;DHT22;13692;47.480;19.216;2023-01-05T01:16:36;7.30;99.90
25877;DHT22;13692;47.480;19.216;2023-01-05T01:19:03;7.30;99.90
25877;DHT22;13692;47.480;19.216;2023-01-05T01:21:31;7.30;99.90
25877;DHT22;13692;47.480;19.216;2023-01-05T01:23:58;7.30;99.90
25877;DHT22;13692;47.480;19.216;2023-01-05T01:26:25;7.40;99.90
25877;DHT22;13692;47.480;19.216;2023-01-05T01:28:52;7.40;99.90
25877;DHT22;13692;47.480;19.216;2023-01-05T01:31:19;7.40;99.90
25877;DHT22;13692;47.480;19.216;2023-01-05T01:33:46;7.40;99.90
25877;DHT22;13692;47.480;19.216;2023-01-05T01:36:13;7.40;99.90
25877;DHT22;13692;47.480;19.216;2023-01-05T01:38:40;7.40;99.90
25877;DHT22;13692;47.480;19.216;2023-01-05T01:41:07;7.40;99.90
25877;DHT22;13692;47.480;19.216;2023-01-05T01:43:44;7.40;99.90
25877;DHT22;13692;47.480;19.216;2023-01-05T01:46:13;7.40;99.90
25877;DHT22;13692;47.480;19.216;2023-01-05T01:48:50;7.40;99.90
25877;DHT22;13692;47.480;19.216;2023-01-05T01:51:41;7.40;99.90
25877;DHT22;13692;47.480;19.216;2023-01-05T01:54:15;7.50;99.90
25877;DHT22;13692;47.480;19.216;2023-01-05T01:56:53;7.50;99.90
25877;DHT22;13692;47.480;19.216;2023-01-05T01:59:22;7.50;99.90
25877;DHT22;13692;47.480;19.216;2023-01-05T02:01:53;7.40;99.90
25877;DHT22;13692;47.480;19.216;2023-01-05T02:04:23;7.50;99.90
25877;DHT22;13692;47.480;19.216;2023-01-05T02:06:52;7.40;99.90
25877;DHT22;13692;47.480;19.216;2023-01-05T02:09:19;7.40;99.90
25877;DHT22;13692;47.480;19.216;2023-01-05T02:36:49;7.80;99.90
25877;DHT22;13692;47.480;19.216;2023-01-05T02:42:01;7.80;99.90
25877;DHT22;13692;47.480;19.216;2023-01-05T02:44:30;7.90;99.90
25877;DHT22;13692;47.480;19.216;2023-01-05T02:47:05;7.90;99.90
25877;DHT22;13692;47.480;19.216;2023-01-05T02:49:37;7.90;99.90
25877;DHT22;13692;47.480;19.216;2023-01-05T02:52:06;7.90;99.90
25877;DHT22;13692;47.480;19.216;2023-01-05T02:54:48;7.90;99.90
25877;DHT22;13692;47.480;19.216;2023-01-05T02:57:20;7.90;99.90
25877;DHT22;13692;47.480;19.216;2023-01-05T03:00:09;8.00;99.90
25877;DHT22;13692;47.480;19.216;2023-01-05T03:02:38;8.00;99.90
25877;DHT22;13692;47.480;19.216;2023-01-05T03:05:13;7.90;99.90
25877;DHT22;13692;47.480;19.216;2023-01-05T03:07:42;7.90;99.90
25877;DHT22;13692;47.480;19.216;2023-01-05T03:10:11;7.90;99.90
25877;DHT22;13692;47.480;19.216;2023-01-05T03:13:03;8.00;99.90
25877;DHT22;13692;47.480;19.216;2023-01-05T03:15:51;7.90;99.90
25877;DHT22;13692;47.480;19.216;2023-01-05T03:18:25;8.00;99.90
25877;DHT22;13692;47.480;19.216;2023-01-05T03:20:54;7.90;99.90
25877;DHT22;13692;47.480;19.216;2023-01-05T03:23:21;7.90;99.90
25877;DHT22;13692;47.480;19.216;2023-01-05T03:26:09;8.00;99.90
25877;DHT22;13692;47.480;19.216;2023-01-05T03:28:58;7.90;99.90
25877;DHT22;13692;47.480;19.216;2023-01-05T03:32:07;8.00;99.90
25877;DHT22;13692;47.480;19.216;2023-01-05T03:35:09;8.00;99.90
25877;DHT22;13692;47.480;19.216;2023-01-05T03:40:28;8.00;99.90
25877;DHT22;13692;47.480;19.216;2023-01-05T03:42:56;8.00;99.90
25877;DHT22;13692;47.480;19.216;2023-01-05T03:45:27;8.00;99.90
25877;DHT22;13692;47.480;19.216;2023-01-05T03:47:58;8.00;99.90
25877;DHT22;13692;47.480;19.216;2023-01-05T03:50:25;8.00;99.90
25877;DHT22;13692;47.480;19.216;2023-01-05T03:52:51;8.00;99.90
25877;DHT22;13692;47.480;19.216;2023-01-05T03:55:18;7.90;99.90
25877;DHT22;13692;47.480;19.216;2023-01-05T03:57:45;7.90;99.90
25877;DHT22;13692;47.480;19.216;2023-01-05T04:00:13;7.90;99.90
25877;DHT22;13692;47.480;19.216;2023-01-05T04:02:40;7.90;99.90
25877;DHT22;13692;47.480;19.216;2023-01-05T04:05:07;7.90;99.90
25877;DHT22;13692;47.480;19.216;2023-01-05T04:07:34;7.90;99.90
25877;DHT22;13692;47.480;19.216;2023-01-05T04:10:01;7.90;99.90
25877;DHT22;13692;47.480;19.216;2023-01-05T04:12:28;7.90;99.90
25877;DHT22;13692;47.480;19.216;2023-01-05T04:14:55;7.90;99.90
25877;DHT22;13692;47.480;19.216;2023-01-05T04:17:22;7.90;99.90
25877;DHT22;13692;47.480;19.216;2023-01-05T04:19:49;8.00;99.90
25877;DHT22;13692;47.480;19.216;2023-01-05T04:22:16;7.90;99.90
25877;DHT22;13692;47.480;19.216;2023-01-05T04:24:49;8.00;99.90
25877;DHT22;13692;47.480;19.216;2023-01-05T04:27:16;8.00;99.90
25877;DHT22;13692;47.480;19.216;2023-01-05T04:29:43;8.00;99.90
25877;DHT22;13692;47.480;19.216;2023-01-05T04:32:10;8.00;99.90
25877;DHT22;13692;47.480;19.216;2023-01-05T04:34:37;8.10;99.90
25877;DHT22;13692;47.480;19.216;2023-01-05T04:37:03;8.00;99.90
25877;DHT22;13692;47.480;19.216;2023-01-05T04:39:30;8.00;99.90
25877;DHT22;13692;47.480;19.216;2023-01-05T04:41:57;8.10;99.90
25877;DHT22;13692;47.480;19.216;2023-01-05T04:44:24;8.10;99.90
25877;DHT22;13692;47.480;19.216;2023-01-05T04:46:51;8.10;99.90
25877;DHT22;13692;47.480;19.216;2023-01-05T04:49:18;8.00;99.90
25877;DHT22;13692;47.480;19.216;2023-01-05T04:51:45;8.00;99.90
25877;DHT22;13692;47.480;19.216;2023-01-05T04:54:12;8.00;99.90
25877;DHT22;13692;47.480;19.216;2023-01-05T04:56:39;8.00;99.90
25877;DHT22;13692;47.480;19.216;2023-01-05T04:59:06;8.00;99.90
25877;DHT22;13692;47.480;19.216;2023-01-05T05:01:32;8.00;99.90
25877;DHT22;13692;47.480;19.216;2023-01-05T05:04:00;8.10;99.90
25877;DHT22;13692;47.480;19.216;2023-01-05T05:06:27;8.10;99.90
25877;DHT22;13692;47.480;19.216;2023-01-05T05:08:53;8.10;99.90
25877;DHT22;13692;47.480;19.216;2023-01-05T05:11:20;8.10;99.90
25877;DHT22;13692;47.480;19.216;2023-01-05T05:13:47;8.10;99.90
25877;DHT22;13692;47.480;19.216;2023-01-05T05:16:14;8.10;99.90
25877;DHT22;13692;47.480;19.216;2023-01-05T05:18:41;8.10;99.90
25877;DHT22;13692;47.480;19.216;2023-01-05T05:21:08;8.10;99.90
25877;DHT22;13692;47.480;19.216;2023-01-05T05:23:36;8.10;99.90
25877;DHT22;13692;47.480;19.216;2023-01-05T05:26:03;8.20;99.90
25877;DHT22;13692;47.480;19.216;2023-01-05T05:28:29;8.20;99.90
25877;DHT22;13692;47.480;19.216;2023-01-05T05:30:56;8.20;99.90
25877;DHT22;13692;47.480;19.216;2023-01-05T05:33:24;8.20;99.90
25877;DHT22;13692;47.480;19.216;2023-01-05T05:35:51;8.20;99.90
25877;DHT22;13692;47.480;19.216;2023-01-05T05:38:18;8.30;99.90
25877;DHT22;13692;47.480;19.216;2023-01-05T05:40:47;8.20;99.90
25877;DHT22;13692;47.480;19.216;2023-01-05T05:43:15;8.20;99.90
25877;DHT22;13692;47.480;19.216;2023-01-05T05:45:42;8.20;99.90
25877;DHT22;13692;47.480;19.216;2023-01-05T05:48:17;8.10;99.90
25877;DHT22;13692;47.480;19.216;2023-01-05T05:50:44;8.10;99.90
25877;DHT22;13692;47.480;19.216;2023-01-05T05:53:11;8.20;99.90
25877;DHT22;13692;47.480;19.216;2023-01-05T05:55:38;8.20;99.90
25877;DHT22;13692;47.480;19.216;2023-01-05T05:58:05;8.10;99.90
25877;DHT22;13692;47.480;19.216;2023-01-05T06:00:32;8.10;99.90
25877;DHT22;13692;47.480;19.216;2023-01-05T06:02:59;8.10;99.90
25877;DHT22;13692;47.480;19.216;2023-01-05T06:05:26;8.10;99.90
25877;DHT22;13692;47.480;19.216;2023-01-05T06:07:53;8.10;99.90
25877;DHT22;13692;47.480;19.216;2023-01-05T06:10:20;8.00;99.90
25877;DHT22;13692;47.480;19.216;2023-01-05T06:12:47;8.00;99.90
25877;DHT22;13692;47.480;19.216;2023-01-05T06:15:14;7.90;99.90
25877;DHT22;13692;47.480;19.216;2023-01-05T06:17:41;7.90;99.90
25877;DHT22;13692;47.480;19.216;2023-01-05T06:20:08;7.90;99.90
25877;DHT22;13692;47.480;19.216;2023-01-05T06:22:35;7.90;99.90
25877;DHT22;13692;47.480;19.216;2023-01-05T06:25:03;7.80;99.90
25877;DHT22;13692;47.480;19.216;2023-01-05T06:27:30;7.80;99.90
25877;DHT22;13692;47.480;19.216;2023-01-05T06:29:57;7.80;99.90
25877;DHT22;13692;47.480;19.216;2023-01-05T06:32:24;7.80;99.90
25877;DHT22;13692;47.480;19.216;2023-01-05T06:34:51;7.70;99.90
25877;DHT22;13692;47.480;19.216;2023-01-05T06:37:18;7.80;99.90
25877;DHT22;13692;47.480;19.216;2023-01-05T06:39:45;7.70;99.90
25877;DHT22;13692;47.480;19.216;2023-01-05T06:42:12;7.70;99.90
25877;DHT22;13692;47.480;19.216;2023-01-05T06:44:38;7.70;99.90
25877;DHT22;13692;47.480;19.216;2023-01-05T06:47:05;7.70;99.90
25877;DHT22;13692;47.480;19.216;2023-01-05T06:49:32;7.70;99.90
25877;DHT22;13692;47.480;19.216;2023-01-05T06:51:59;7.70;99.90
25877;DHT22;13692;47.480;19.216;2023-01-05T06:54:26;7.70;99.90
25877;DHT22;13692;47.480;19.216;2023-01-05T06:56:53;7.70;99.90
25877;DHT22;13692;47.480;19.216;2023-01-05T06:59:20;7.70;99.90
25877;DHT22;13692;47.480;19.216;2023-01-05T07:01:47;7.70;99.90
25877;DHT22;13692;47.480;19.216;2023-01-05T07:04:14;7.70;99.90
25877;DHT22;13692;47.480;19.216;2023-01-05T07:06:41;7.70;99.90
25877;DHT22;13692;47.480;19.216;2023-01-05T07:09:08;7.80;99.90
25877;DHT22;13692;47.480;19.216;2023-01-05T07:11:35;7.80;99.90
25877;DHT22;13692;47.480;19.216;2023-01-05T07:14:02;7.80;99.90
25877;DHT22;13692;47.480;19.216;2023-01-05T07:16:29;7.80;99.90
25877;DHT22;13692;47.480;19.216;2023-01-05T07:18:56;7.90;99.90
25877;DHT22;13692;47.480;19.216;2023-01-05T07:21:23;7.90;99.90
25877;DHT22;13692;47.480;19.216;2023-01-05T07:23:50;8.00;99.90
25877;DHT22;13692;47.480;19.216;2023-01-05T07:26:17;7.90;99.90
25877;DHT22;13692;47.480;19.216;2023-01-05T07:28:44;8.00;99.90
25877;DHT22;13692;47.480;19.216;2023-01-05T07:31:11;8.00;99.90
25877;DHT22;13692;47.480;19.216;2023-01-05T07:33:39;8.00;99.90
25877;DHT22;13692;47.480;19.216;2023-01-05T07:36:06;8.00;99.90
25877;DHT22;13692;47.480;19.216;2023-01-05T07:38:33;8.00;99.90
25877;DHT22;13692;47.480;19.216;2023-01-05T07:41:01;8.10;99.90
25877;DHT22;13692;47.480;19.216;2023-01-05T07:43:28;8.10;99.90
25877;DHT22;13692;47.480;19.216;2023-01-05T07:45:59;8.10;99.90
25877;DHT22;13692;47.480;19.216;2023-01-05T07:48:26;8.20;99.90
25877;DHT22;13692;47.480;19.216;2023-01-05T07:51:00;8.20;99.90
25877;DHT22;13692;47.480;19.216;2023-01-05T07:53:29;8.20;99.90
25877;DHT22;13692;47.480;19.216;2023-01-05T07:56:00;8.20;99.90
25877;DHT22;13692;47.480;19.216;2023-01-05T07:58:28;8.10;99.90
25877;DHT22;13692;47.480;19.216;2023-01-05T08:00:55;8.10;99.90
25877;DHT22;13692;47.480;19.216;2023-01-05T08:03:22;8.10;99.90
25877;DHT22;13692;47.480;19.216;2023-01-05T08:05:49;8.20;99.90
25877;DHT22;13692;47.480;19.216;2023-01-05T08:08:16;8.20;99.90
25877;DHT22;13692;47.480;19.216;2023-01-05T08:10:50;8.20;99.90
25877;DHT22;13692;47.480;19.216;2023-01-05T08:13:17;8.10;99.90
25877;DHT22;13692;47.480;19.216;2023-01-05T08:16:02;8.10;99.90
25877;DHT22;13692;47.480;19.216;2023-01-05T08:18:29;8.10;99.90
25877;DHT22;13692;47.480;19.216;2023-01-05T08:20:58;8.10;99.90
25877;DHT22;13692;47.480;19.216;2023-01-05T08:23:27;8.10;99.90
25877;DHT22;13692;47.480;19.216;2023-01-05T08:25:54;8.20;99.90
25877;DHT22;13692;47.480;19.216;2023-01-05T08:28:23;8.30;99.90
25877;DHT22;13692;47.480;19.216;2023-01-05T08:31:02;8.40;99.90
25877;DHT22;13692;47.480;19.216;2023-01-05T08:33:29;8.50;99.90
25877;DHT22;13692;47.480;19.216;2023-01-05T08:35:56;8.50;99.90
25877;DHT22;13692;47.480;19.216;2023-01-05T08:38:24;8.60;99.90
25877;DHT22;13692;47.480;19.216;2023-01-05T08:40:51;8.60;99.90
25877;DHT22;13692;47.480;19.216;2023-01-05T08:43:18;8.60;99.90
25877;DHT22;13692;47.480;19.216;2023-01-05T08:45:48;8.50;99.90
25877;DHT22;13692;47.480;19.216;2023-01-05T08:48:16;8.50;99.90
25877;DHT22;13692;47.480;19.216;2023-01-05T08:50:42;8.50;99.90
25877;DHT22;13692;47.480;19.216;2023-01-05T08:53:10;8.50;99.90
25877;DHT22;13692;47.480;19.216;2023-01-05T08:55:37;8.50;99.90
25877;DHT22;13692;47.480;19.216;2023-01-05T08:58:04;8.50;99.90
25877;DHT22;13692;47.480;19.216;2023-01-05T09:00:33;8.50;99.90
25877;DHT22;13692;47.480;19.216;2023-01-05T09:03:01;8.50;99.90
25877;DHT22;13692;47.480;19.216;2023-01-05T09:05:28;8.40;99.90
25877;DHT22;13692;47.480;19.216;2023-01-05T09:07:55;8.40;99.90
25877;DHT22;13692;47.480;19.216;2023-01-05T09:10:22;8.30;99.90
25877;DHT22;13692;47.480;19.216;2023-01-05T09:12:49;8.30;99.90
25877;DHT22;13692;47.480;19.216;2023-01-05T09:15:16;8.40;99.90
25877;DHT22;13692;47.480;19.216;2023-01-05T09:17:43;8.40;99.90
25877;DHT22;13692;47.480;19.216;2023-01-05T09:20:10;8.40;99.90
25877;DHT22;13692;47.480;19.216;2023-01-05T09:22:37;8.40;99.90
25877;DHT22;13692;47.480;19.216;2023-01-05T09:25:04;8.50;99.90
25877;DHT22;13692;47.480;19.216;2023-01-05T09:27:32;8.50;99.90
25877;DHT22;13692;47.480;19.216;2023-01-05T09:30:00;8.50;99.90
25877;DHT22;13692;47.480;19.216;2023-01-05T09:32:26;8.60;99.90
25877;DHT22;13692;47.480;19.216;2023-01-05T09:34:54;8.50;99.90
25877;DHT22;13692;47.480;19.216;2023-01-05T09:37:21;8.50;99.90
25877;DHT22;13692;47.480;19.216;2023-01-05T09:39:49;8.50;99.90
25877;DHT22;13692;47.480;19.216;2023-01-05T09:42:20;8.50;99.90
25877;DHT22;13692;47.480;19.216;2023-01-05T09:44:53;8.50;99.90
25877;DHT22;13692;47.480;19.216;2023-01-05T09:47:39;8.60;99.90
25877;DHT22;13692;47.480;19.216;2023-01-05T09:50:19;8.70;99.90
25877;DHT22;13692;47.480;19.216;2023-01-05T09:52:48;8.70;99.90
25877;DHT22;13692;47.480;19.216;2023-01-05T09:55:16;8.80;99.90
25877;DHT22;13692;47.480;19.216;2023-01-05T09:58:05;8.80;99.90
25877;DHT22;13692;47.480;19.216;2023-01-05T10:00:34;8.80;99.90
25877;DHT22;13692;47.480;19.216;2023-01-05T10:03:15;8.90;99.90
25877;DHT22;13692;47.480;19.216;2023-01-05T10:06:06;9.00;99.90
25877;DHT22;13692;47.480;19.216;2023-01-05T10:08:48;9.20;99.90
25877;DHT22;13692;47.480;19.216;2023-01-05T10:14:37;9.30;99.90
25877;DHT22;13692;47.480;19.216;2023-01-05T10:17:23;9.30;99.90
25877;DHT22;13692;47.480;19.216;2023-01-05T10:29:11;9.50;99.90
25877;DHT22;13692;47.480;19.216;2023-01-05T10:34:22;9.60;99.90
25877;DHT22;13692;47.480;19.216;2023-01-05T10:39:54;9.60;99.90
25877;DHT22;13692;47.480;19.216;2023-01-05T10:44:59;9.60;99.90
25877;DHT22;13692;47.480;19.216;2023-01-05T10:47:31;9.50;99.90
25877;DHT22;13692;47.480;19.216;2023-01-05T10:50:09;9.50;99.90
25877;DHT22;13692;47.480;19.216;2023-01-05T10:52:45;9.50;99.90
25877;DHT22;13692;47.480;19.216;2023-01-05T10:55:14;9.50;99.90
25877;DHT22;13692;47.480;19.216;2023-01-05T10:57:45;9.50;99.90
25877;DHT22;13692;47.480;19.216;2023-01-05T11:00:16;9.50;99.90
25877;DHT22;13692;47.480;19.216;2023-01-05T11:02:51;9.60;99.90
25877;DHT22;13692;47.480;19.216;2023-01-05T11:05:37;9.60;99.90
25877;DHT22;13692;47.480;19.216;2023-01-05T11:08:13;9.60;99.90
25877;DHT22;13692;47.480;19.216;2023-01-05T11:16:11;9.60;99.90
25877;DHT22;13692;47.480;19.216;2023-01-05T11:18:56;9.60;99.90
25877;DHT22;13692;47.480;19.216;2023-01-05T11:23:59;9.60;99.90
25877;DHT22;13692;47.480;19.216;2023-01-05T11:26:36;9.60;99.90
25877;DHT22;13692;47.480;19.216;2023-01-05T11:29:15;9.50;99.90
25877;DHT22;13692;47.480;19.216;2023-01-05T11:31:46;9.60;99.90
25877;DHT22;13692;47.480;19.216;2023-01-05T11:39:53;9.70;99.90
25877;DHT22;13692;47.480;19.216;2023-01-05T11:48:00;9.70;99.90
25877;DHT22;13692;47.480;19.216;2023-01-05T11:50:51;9.70;99.90
25877;DHT22;13692;47.480;19.216;2023-01-05T11:58:33;9.80;99.90
25877;DHT22;13692;47.480;19.216;2023-01-05T12:04:05;10.00;99.90
25877;DHT22;13692;47.480;19.216;2023-01-05T12:09:42;10.10;99.90
25877;DHT22;13692;47.480;19.216;2023-01-05T12:29:14;10.40;99.90
25877;DHT22;13692;47.480;19.216;2023-01-05T12:44:09;10.40;99.90
25877;DHT22;13692;47.480;19.216;2023-01-05T12:47:15;10.40;99.90
25877;DHT22;13692;47.480;19.216;2023-01-05T12:53:21;10.40;99.90
25877;DHT22;13692;47.480;19.216;2023-01-05T12:55:54;10.40;99.90
25877;DHT22;13692;47.480;19.216;2023-01-05T12:58:35;10.40;99.90
25877;DHT22;13692;47.480;19.216;2023-01-05T13:01:07;10.50;99.90
25877;DHT22;13692;47.480;19.216;2023-01-05T13:03:54;10.50;99.90
25877;DHT22;13692;47.480;19.216;2023-01-05T13:06:23;10.50;99.90
25877;DHT22;13692;47.480;19.216;2023-01-05T13:08:58;10.40;99.90
25877;DHT22;13692;47.480;19.216;2023-01-05T13:11:34;10.50;99.90
25877;DHT22;13692;47.480;19.216;2023-01-05T13:14:15;10.50;99.90
25877;DHT22;13692;47.480;19.216;2023-01-05T13:16:52;10.50;99.90
25877;DHT22;13692;47.480;19.216;2023-01-05T13:19:33;10.50;99.90
25877;DHT22;13692;47.480;19.216;2023-01-05T13:22:04;10.50;99.90
25877;DHT22;13692;47.480;19.216;2023-01-05T13:24:34;10.40;99.90
25877;DHT22;13692;47.480;19.216;2023-01-05T13:27:03;10.40;99.90
25877;DHT22;13692;47.480;19.216;2023-01-05T13:29:40;10.40;99.90
25877;DHT22;13692;47.480;19.216;2023-01-05T13:32:51;10.40;99.90
25877;DHT22;13692;47.480;19.216;2023-01-05T13:36:08;10.40;99.90
25877;DHT22;13692;47.480;19.216;2023-01-05T13:38:55;10.30;99.90
25877;DHT22;13692;47.480;19.216;2023-01-05T13:41:35;10.30;99.90
25877;DHT22;13692;47.480;19.216;2023-01-05T13:44:42;10.30;99.90
25877;DHT22;13692;47.480;19.216;2023-01-05T13:55:23;10.10;99.90
25877;DHT22;13692;47.480;19.216;2023-01-05T13:57:53;10.10;99.90
25877;DHT22;13692;47.480;19.216;2023-01-05T14:00:25;10.10;99.90
25877;DHT22;13692;47.480;19.216;2023-01-05T14:02:58;10.10;99.90
25877;DHT22;13692;47.480;19.216;2023-01-05T14:05:34;10.00;99.90
25877;DHT22;13692;47.480;19.216;2023-01-05T14:08:04;10.00;99.90
25877;DHT22;13692;47.480;19.216;2023-01-05T14:10:40;10.00;99.90
25877;DHT22;13692;47.480;19.216;2023-01-05T14:19:19;9.90;99.90
25877;DHT22;13692;47.480;19.216;2023-01-05T14:24:30;9.80;99.90
25877;DHT22;13692;47.480;19.216;2023-01-05T14:40:36;9.50;99.90
25877;DHT22;13692;47.480;19.216;2023-01-05T14:46:05;9.50;99.90
25877;DHT22;13692;47.480;19.216;2023-01-05T14:53:47;9.50;99.90
25877;DHT22;13692;47.480;19.216;2023-01-05T14:56:19;9.50;99.90
25877;DHT22;13692;47.480;19.216;2023-01-05T14:59:01;9.50;99.90
25877;DHT22;13692;47.480;19.216;2023-01-05T15:01:54;9.40;99.90
25877;DHT22;13692;47.480;19.216;2023-01-05T15:04:34;9.40;99.90
25877;DHT22;13692;47.480;19.216;2023-01-05T15:10:10;9.40;99.90
25877;DHT22;13692;47.480;19.216;2023-01-05T15:16:26;9.40;99.90
25877;DHT22;13692;47.480;19.216;2023-01-05T15:34:05;9.30;99.90
25877;DHT22;13692;47.480;19.216;2023-01-05T15:37:07;9.30;99.90
25877;DHT22;13692;47.480;19.216;2023-01-05T15:39:36;9.30;99.90
25877;DHT22;13692;47.480;19.216;2023-01-05T15:42:12;9.30;99.90
25877;DHT22;13692;47.480;19.216;2023-01-05T15:44:47;9.30;99.90
25877;DHT22;13692;47.480;19.216;2023-01-05T15:47:17;9.30;99.90
25877;DHT22;13692;47.480;19.216;2023-01-05T15:49:45;9.30;99.90
25877;DHT22;13692;47.480;19.216;2023-01-05T15:52:26;9.30;99.90
25877;DHT22;13692;47.480;19.216;2023-01-05T15:54:58;9.30;99.90
25877;DHT22;13692;47.480;19.216;2023-01-05T15:57:25;9.20;99.90
25877;DHT22;13692;47.480;19.216;2023-01-05T15:59:52;9.20;99.90
25877;DHT22;13692;47.480;19.216;2023-01-05T16:02:28;9.20;99.90
25877;DHT22;13692;47.480;19.216;2023-01-05T16:05:14;9.10;99.90
25877;DHT22;13692;47.480;19.216;2023-01-05T16:07:54;9.00;99.90
25877;DHT22;13692;47.480;19.216;2023-01-05T16:10:34;9.00;99.90
25877;DHT22;13692;47.480;19.216;2023-01-05T16:13:10;8.90;99.90
25877;DHT22;13692;47.480;19.216;2023-01-05T16:15:38;8.90;99.90
25877;DHT22;13692;47.480;19.216;2023-01-05T16:18:15;8.90;99.90
25877;DHT22;13692;47.480;19.216;2023-01-05T16:20:43;8.90;99.90
25877;DHT22;13692;47.480;19.216;2023-01-05T16:23:17;8.80;99.90
25877;DHT22;13692;47.480;19.216;2023-01-05T16:25:50;8.80;99.90
25877;DHT22;13692;47.480;19.216;2023-01-05T16:28:19;8.90;99.90
25877;DHT22;13692;47.480;19.216;2023-01-05T16:30:48;8.90;99.90
25877;DHT22;13692;47.480;19.216;2023-01-05T16:33:26;8.90;99.90
25877;DHT22;13692;47.480;19.216;2023-01-05T16:38:36;8.90;99.90
25877;DHT22;13692;47.480;19.216;2023-01-05T16:41:10;9.00;99.90
25877;DHT22;13692;47.480;19.216;2023-01-05T16:43:50;9.00;99.90
25877;DHT22;13692;47.480;19.216;2023-01-05T16:48:52;9.00;99.90
25877;DHT22;13692;47.480;19.216;2023-01-05T16:51:34;9.00;99.90
25877;DHT22;13692;47.480;19.216;2023-01-05T16:54:20;9.00;99.90
25877;DHT22;13692;47.480;19.216;2023-01-05T16:57:00;9.10;99.90
25877;DHT22;13692;47.480;19.216;2023-01-05T17:00:00;9.10;99.90
25877;DHT22;13692;47.480;19.216;2023-01-05T17:02:43;9.20;99.90
25877;DHT22;13692;47.480;19.216;2023-01-05T17:05:16;9.20;99.90
25877;DHT22;13692;47.480;19.216;2023-01-05T17:07:47;9.20;99.90
25877;DHT22;13692;47.480;19.216;2023-01-05T17:10:19;9.20;99.90
25877;DHT22;13692;47.480;19.216;2023-01-05T17:12:52;9.20;99.90
25877;DHT22;13692;47.480;19.216;2023-01-05T17:15:22;9.20;99.90
25877;DHT22;13692;47.480;19.216;2023-01-05T17:17:50;9.30;99.90
25877;DHT22;13692;47.480;19.216;2023-01-05T17:20:22;9.30;99.90
25877;DHT22;13692;47.480;19.216;2023-01-05T17:22:53;9.30;99.90
25877;DHT22;13692;47.480;19.216;2023-01-05T17:25:21;9.30;99.90
25877;DHT22;13692;47.480;19.216;2023-01-05T17:27:49;9.30;99.90
25877;DHT22;13692;47.480;19.216;2023-01-05T17:30:19;9.30;99.90
25877;DHT22;13692;47.480;19.216;2023-01-05T17:32:46;9.30;99.90
25877;DHT22;13692;47.480;19.216;2023-01-05T17:35:14;9.40;99.90
25877;DHT22;13692;47.480;19.216;2023-01-05T17:37:45;9.40;99.90
25877;DHT22;13692;47.480;19.216;2023-01-05T17:40:17;9.40;99.90
25877;DHT22;13692;47.480;19.216;2023-01-05T17:42:45;9.40;99.90
25877;DHT22;13692;47.480;19.216;2023-01-05T17:45:19;9.30;99.90
25877;DHT22;13692;47.480;19.216;2023-01-05T17:47:47;9.30;99.90
25877;DHT22;13692;47.480;19.216;2023-01-05T17:50:20;9.30;99.90
25877;DHT22;13692;47.480;19.216;2023-01-05T17:52:47;9.30;99.90
25877;DHT22;13692;47.480;19.216;2023-01-05T17:55:14;9.30;99.90
25877;DHT22;13692;47.480;19.216;2023-01-05T17:57:41;9.40;99.90
25877;DHT22;13692;47.480;19.216;2023-01-05T18:00:10;9.40;99.90
25877;DHT22;13692;47.480;19.216;2023-01-05T18:02:38;9.40;99.90
25877;DHT22;13692;47.480;19.216;2023-01-05T18:05:06;9.40;99.90
25877;DHT22;13692;47.480;19.216;2023-01-05T18:07:34;9.30;99.90
25877;DHT22;13692;47.480;19.216;2023-01-05T18:10:03;9.30;99.90
25877;DHT22;13692;47.480;19.216;2023-01-05T18:12:30;9.30;99.90
25877;DHT22;13692;47.480;19.216;2023-01-05T18:14:57;9.30;99.90
25877;DHT22;13692;47.480;19.216;2023-01-05T18:17:24;9.30;99.90
25877;DHT22;13692;47.480;19.216;2023-01-05T18:19:52;9.30;99.90
25877;DHT22;13692;47.480;19.216;2023-01-05T18:22:19;9.30;99.90
25877;DHT22;13692;47.480;19.216;2023-01-05T18:24:46;9.30;99.90
25877;DHT22;13692;47.480;19.216;2023-01-05T18:27:14;9.30;99.90
25877;DHT22;13692;47.480;19.216;2023-01-05T18:29:41;9.30;99.90
25877;DHT22;13692;47.480;19.216;2023-01-05T18:32:09;9.30;99.90
25877;DHT22;13692;47.480;19.216;2023-01-05T18:34:36;9.30;99.90
25877;DHT22;13692;47.480;19.216;2023-01-05T18:37:04;9.30;99.90
25877;DHT22;13692;47.480;19.216;2023-01-05T18:39:36;9.40;99.90
25877;DHT22;13692;47.480;19.216;2023-01-05T18:42:03;9.40;99.90
25877;DHT22;13692;47.480;19.216;2023-01-05T18:44:30;9.40;99.90
25877;DHT22;13692;47.480;19.216;2023-01-05T18:46:57;9.40;99.90
25877;DHT22;13692;47.480;19.216;2023-01-05T18:49:24;9.40;99.90
25877;DHT22;13692;47.480;19.216;2023-01-05T18:51:51;9.30;99.90
25877;DHT22;13692;47.480;19.216;2023-01-05T18:54:19;9.30;99.90
25877;DHT22;13692;47.480;19.216;2023-01-05T18:56:46;9.30;99.90
25877;DHT22;13692;47.480;19.216;2023-01-05T18:59:14;9.30;99.90